Carrollton, Louisiana
Current Conditions -  °F | °C
As of 12:55 AM on Sunday 26 Oct 2014 (Local Time) from KVSH Reporting Station
Clear Clear  
Wind Chill: 70°   Ceiling: Unl
Heat Index: 70°   Visibility: 10mi
Dew Point: 57°   Wind: 0mph
Humidity: 64%   Direction: NA
Pressure: 30.07"   Gusts: NA
Location:  29.9472°N, 90.1244°W
Report Text: KVSH 260555Z AUTO 00000KT 10SM CLR 21/14 A3007 RMK AO1 10250 20210 57010
Loading
Personal Weather Stations






























Interactive Weather Map
Tropical Storm Tracking
New forecast layout! Learn more

10-Day Weather Forecast

Advertisements
Track Severe Weather on mobile